createdAt,value
2022-11-23T00:00:41.102Z,0
2022-11-23T00:01:41.128Z,0
2022-11-23T00:02:41.194Z,0
2022-11-23T00:03:41.424Z,0
2022-11-23T00:04:41.456Z,0
2022-11-23T00:05:41.189Z,0
2022-11-23T00:06:41.217Z,0
2022-11-23T00:07:41.574Z,0
2022-11-23T00:08:41.244Z,0
2022-11-23T00:09:41.469Z,0
2022-11-23T00:10:41.266Z,0
2022-11-23T00:11:41.544Z,0
2022-11-23T00:12:41.682Z,0
2022-11-23T00:13:41.446Z,0
2022-11-23T00:14:41.344Z,0
2022-11-23T00:15:41.366Z,0
2022-11-23T00:16:41.381Z,0
2022-11-23T00:17:41.396Z,0
2022-11-23T00:18:41.678Z,0
2022-11-23T00:19:41.902Z,0
2022-11-23T00:20:41.441Z,0
2022-11-23T00:21:41.460Z,0
2022-11-23T00:22:41.476Z,0
2022-11-23T00:23:41.757Z,0
2022-11-23T00:24:41.710Z,0
2022-11-23T00:25:41.790Z,0
2022-11-23T00:26:41.548Z,0
2022-11-23T00:27:41.935Z,0
2022-11-23T00:28:41.881Z,0
2022-11-23T00:29:41.358Z,0
2022-11-23T00:30:41.866Z,0
2022-11-23T00:31:41.632Z,0
2022-11-23T00:32:41.643Z,0
2022-11-23T00:33:41.667Z,0
2022-11-23T00:34:41.688Z,0
2022-11-23T00:35:41.433Z,0
2022-11-23T00:36:41.973Z,0
2022-11-23T00:37:41.747Z,0
2022-11-23T00:38:42.024Z,0
2022-11-23T00:39:42.017Z,0
2022-11-23T00:40:41.776Z,0
2022-11-23T00:41:41.535Z,0
2022-11-23T00:42:45.402Z,0
2022-11-23T00:43:42.118Z,0
2022-11-23T00:44:42.140Z,0
2022-11-23T00:45:41.906Z,0
2022-11-23T00:46:42.140Z,0
2022-11-23T00:47:41.888Z,0
2022-11-23T00:48:42.177Z,0
2022-11-23T00:49:41.946Z,0
2022-11-23T00:50:42.208Z,0
2022-11-23T00:51:42.235Z,0
2022-11-23T00:52:42.350Z,0
2022-11-23T00:53:41.748Z,0
2022-11-23T00:54:41.756Z,0
2022-11-23T00:55:42.295Z,0
2022-11-23T00:56:42.319Z,0
2022-11-23T00:57:41.811Z,0
2022-11-23T00:58:41.869Z,0
2022-11-23T00:59:42.114Z,0
2022-11-23T01:00:42.432Z,0
2022-11-23T01:01:42.642Z,0
2022-11-23T01:02:42.151Z,0
2022-11-23T01:03:42.432Z,0
2022-11-23T01:04:42.465Z,0
2022-11-23T01:05:42.452Z,0
2022-11-23T01:06:42.219Z,0
2022-11-23T01:07:42.512Z,0
2022-11-23T01:08:42.259Z,0
2022-11-23T01:09:42.537Z,0
2022-11-23T01:10:42.574Z,0
2022-11-23T01:11:42.577Z,0
2022-11-23T01:12:42.323Z,0
2022-11-23T01:13:42.358Z,0
2022-11-23T01:14:42.715Z,0
2022-11-23T01:15:42.373Z,0
2022-11-23T01:16:42.408Z,0
2022-11-23T01:17:42.686Z,0
2022-11-23T01:18:42.565Z,0
2022-11-23T01:19:42.690Z,0
2022-11-23T01:20:42.464Z,0
2022-11-23T01:21:42.465Z,0
2022-11-23T01:22:42.748Z,0
2022-11-23T01:23:42.493Z,0
2022-11-23T01:24:42.513Z,0
2022-11-23T01:25:42.281Z,0
2022-11-23T01:26:42.825Z,0
2022-11-23T01:27:42.571Z,0
2022-11-23T01:28:42.370Z,0
2022-11-23T01:29:42.953Z,0
2022-11-23T01:30:42.931Z,0
2022-11-23T01:31:49.227Z,0
2022-11-23T01:32:48.950Z,0
2022-11-23T01:33:42.974Z,0
2022-11-23T01:34:42.943Z,0
2022-11-23T01:35:42.707Z,0
2022-11-23T01:36:42.730Z,0
2022-11-23T01:37:42.741Z,0
2022-11-23T01:38:43.010Z,0
2022-11-23T01:39:42.765Z,0
2022-11-23T01:40:42.779Z,0
2022-11-23T01:41:42.823Z,0
2022-11-23T01:42:42.828Z,0
2022-11-23T01:43:42.845Z,0
2022-11-23T01:44:43.109Z,0
2022-11-23T01:45:42.878Z,0
2022-11-23T01:46:43.197Z,0
2022-11-23T01:47:42.905Z,0
2022-11-23T01:48:42.953Z,0
2022-11-23T01:49:42.965Z,0
2022-11-23T01:50:43.208Z,0
2022-11-23T01:51:42.976Z,0
2022-11-23T01:52:43.323Z,0
2022-11-23T01:53:43.005Z,0
2022-11-23T01:54:43.014Z,0
2022-11-23T01:55:43.045Z,0
2022-11-23T01:56:43.056Z,0
2022-11-23T01:57:43.066Z,0
2022-11-23T01:58:43.358Z,0
2022-11-23T01:59:43.098Z,0
2022-11-23T02:00:43.444Z,0
2022-11-23T02:01:43.275Z,0
2022-11-23T02:02:43.458Z,0
2022-11-23T02:03:43.430Z,0
2022-11-23T02:04:43.316Z,0
2022-11-23T02:05:43.596Z,0
2022-11-23T02:06:43.469Z,0
2022-11-23T02:07:43.818Z,0
2022-11-23T02:08:43.000Z,0
2022-11-23T02:09:43.279Z,0
2022-11-23T02:10:43.554Z,0
2022-11-23T02:11:43.306Z,0
2022-11-23T02:12:43.104Z,0
2022-11-23T02:13:43.345Z,0
2022-11-23T02:14:43.602Z,0
2022-11-23T02:15:43.785Z,0
2022-11-23T02:16:43.129Z,0
2022-11-23T02:17:43.451Z,0
2022-11-23T02:18:43.729Z,0
2022-11-23T02:19:43.176Z,0
2022-11-23T02:20:43.723Z,0
2022-11-23T02:21:43.754Z,0
2022-11-23T02:22:43.472Z,0
2022-11-23T02:23:43.763Z,0
2022-11-23T02:24:43.781Z,0
2022-11-23T02:25:43.271Z,0
2022-11-23T02:26:43.566Z,0
2022-11-23T02:27:50.005Z,0
2022-11-23T02:28:43.849Z,0
2022-11-23T02:29:43.343Z,0
2022-11-23T02:30:43.882Z,0
2022-11-23T02:31:43.899Z,0
2022-11-23T02:32:43.137Z,0
2022-11-23T02:33:43.671Z,0
2022-11-23T02:34:43.992Z,0
2022-11-23T02:35:43.965Z,0
2022-11-23T02:36:44.110Z,0
2022-11-23T02:37:43.756Z,0
2022-11-23T02:38:43.234Z,0
2022-11-23T02:39:44.047Z,0
2022-11-23T02:40:43.800Z,0
2022-11-23T02:41:43.804Z,0
2022-11-23T02:42:43.822Z,0
2022-11-23T02:43:44.094Z,0
2022-11-23T02:44:43.589Z,0
2022-11-23T02:45:44.144Z,0
2022-11-23T02:46:44.349Z,0
2022-11-23T02:47:44.177Z,0
2022-11-23T02:48:44.179Z,0
2022-11-23T02:49:43.676Z,0
2022-11-23T02:50:44.012Z,0
2022-11-23T02:51:44.219Z,0
2022-11-23T02:52:44.206Z,0
2022-11-23T02:53:44.027Z,0
2022-11-23T02:54:44.306Z,0
2022-11-23T02:55:44.217Z,0
2022-11-23T02:56:44.060Z,0
2022-11-23T02:57:43.806Z,0
2022-11-23T02:58:44.092Z,0
2022-11-23T02:59:43.857Z,0
2022-11-23T03:00:44.391Z,0
2022-11-23T03:01:43.864Z,0
2022-11-23T03:02:44.146Z,0
2022-11-23T03:03:44.172Z,0
2022-11-23T03:04:44.454Z,0
2022-11-23T03:05:44.453Z,0
2022-11-23T03:06:44.523Z,0
2022-11-23T03:07:44.756Z,0
2022-11-23T03:08:44.557Z,0
2022-11-23T03:09:44.538Z,0
2022-11-23T03:10:44.558Z,0
2022-11-23T03:11:44.565Z,0
2022-11-23T03:12:44.564Z,0
2022-11-23T03:13:44.337Z,0
2022-11-23T03:14:44.344Z,0
2022-11-23T03:15:44.369Z,0
2022-11-23T03:16:44.387Z,0
2022-11-23T03:17:44.388Z,0
2022-11-23T03:18:44.158Z,0
2022-11-23T03:19:44.174Z,0
2022-11-23T03:20:43.925Z,0
2022-11-23T03:21:44.193Z,0
2022-11-23T03:22:44.531Z,0
2022-11-23T03:23:44.498Z,0
2022-11-23T03:24:44.550Z,0
2022-11-23T03:25:44.596Z,0
2022-11-23T03:26:44.544Z,0
2022-11-23T03:27:44.311Z,0
2022-11-23T03:28:44.587Z,0
2022-11-23T03:29:44.728Z,0
2022-11-23T03:30:44.913Z,0
2022-11-23T03:31:44.371Z,0
2022-11-23T03:32:44.920Z,0
2022-11-23T03:33:44.409Z,0
2022-11-23T03:34:44.961Z,0
2022-11-23T03:35:44.950Z,0
2022-11-23T03:36:44.969Z,0
2022-11-23T03:37:44.467Z,0
2022-11-23T03:38:45.041Z,0
2022-11-23T03:39:51.888Z,0
2022-11-23T03:40:44.511Z,0
2022-11-23T03:41:45.089Z,0
2022-11-23T03:42:45.070Z,0
2022-11-23T03:43:44.317Z,0
2022-11-23T03:44:44.320Z,0
2022-11-23T03:45:44.863Z,0
2022-11-23T03:46:45.127Z,0
2022-11-23T03:47:45.160Z,0
2022-11-23T03:48:44.955Z,0
2022-11-23T03:49:44.922Z,0
2022-11-23T03:50:45.195Z,0
2022-11-23T03:51:44.953Z,0
2022-11-23T03:52:45.502Z,0
2022-11-23T03:53:44.735Z,0
2022-11-23T03:54:45.315Z,0
2022-11-23T03:55:45.045Z,0
2022-11-23T03:56:44.777Z,0
2022-11-23T03:57:45.333Z,0
2022-11-23T03:58:44.811Z,0
2022-11-23T03:59:45.079Z,0
2022-11-23T04:00:45.359Z,0
2022-11-23T04:01:44.863Z,0
2022-11-23T04:02:45.392Z,0
2022-11-23T04:03:45.421Z,0
2022-11-23T04:04:45.419Z,0
2022-11-23T04:05:45.192Z,0
2022-11-23T04:06:44.945Z,0
2022-11-23T04:07:45.239Z,0
2022-11-23T04:08:45.501Z,0
2022-11-23T04:09:44.988Z,0
2022-11-23T04:10:45.589Z,0
2022-11-23T04:11:45.410Z,0
2022-11-23T04:12:45.294Z,0
2022-11-23T04:13:45.599Z,0
2022-11-23T04:14:45.684Z,0
2022-11-23T04:15:45.365Z,0
2022-11-23T04:16:45.364Z,0
2022-11-23T04:17:45.641Z,0
2022-11-23T04:18:45.392Z,0
2022-11-23T04:19:45.152Z,0
2022-11-23T04:20:45.331Z,0
2022-11-23T04:21:45.705Z,0
2022-11-23T04:22:45.717Z,0
2022-11-23T04:23:45.738Z,0
2022-11-23T04:24:45.236Z,0
2022-11-23T04:25:45.768Z,0
2022-11-23T04:26:45.606Z,0
2022-11-23T04:27:45.565Z,0
2022-11-23T04:28:45.558Z,0
2022-11-23T04:29:45.896Z,0
2022-11-23T04:30:45.853Z,0
2022-11-23T04:31:45.864Z,0
2022-11-23T04:32:45.889Z,0
2022-11-23T04:33:45.908Z,0
2022-11-23T04:34:45.664Z,0
2022-11-23T04:35:45.408Z,0
2022-11-23T04:36:45.425Z,0
2022-11-23T04:37:45.985Z,0
2022-11-23T04:38:45.480Z,0
2022-11-23T04:39:45.742Z,0
2022-11-23T04:40:45.769Z,0
2022-11-23T04:41:45.510Z,0
2022-11-23T04:42:46.103Z,0
2022-11-23T04:43:45.832Z,0
2022-11-23T04:44:46.087Z,0
2022-11-23T04:45:46.120Z,0
2022-11-23T04:46:46.111Z,0
2022-11-23T04:47:45.644Z,0
2022-11-23T04:48:46.147Z,0
2022-11-23T04:49:46.156Z,0
2022-11-23T04:50:55.734Z,0
2022-11-23T04:51:45.936Z,0
2022-11-23T04:52:46.242Z,0
2022-11-23T04:53:45.727Z,0
2022-11-23T04:54:46.250Z,0
2022-11-23T04:55:45.740Z,0
2022-11-23T04:56:46.277Z,0
2022-11-23T04:57:46.035Z,0
2022-11-23T04:58:46.358Z,0
2022-11-23T04:59:46.350Z,0
2022-11-23T05:00:46.653Z,0
2022-11-23T05:01:46.370Z,0
2022-11-23T05:02:46.118Z,0
2022-11-23T05:03:46.408Z,0
2022-11-23T05:04:46.139Z,0
2022-11-23T05:05:46.168Z,0
2022-11-23T05:06:46.202Z,0
2022-11-23T05:07:46.748Z,0
2022-11-23T05:08:46.481Z,0
2022-11-23T05:09:45.961Z,0
2022-11-23T05:10:46.598Z,0
2022-11-23T05:11:46.524Z,0
2022-11-23T05:12:46.010Z,0
2022-11-23T05:13:46.555Z,0
2022-11-23T05:14:46.362Z,0
2022-11-23T05:15:46.095Z,0
2022-11-23T05:16:46.599Z,0
2022-11-23T05:17:46.688Z,0
2022-11-23T05:18:46.636Z,0
2022-11-23T05:19:46.657Z,0
2022-11-23T05:20:46.400Z,0
2022-11-23T05:21:46.696Z,0
2022-11-23T05:22:46.705Z,0
2022-11-23T05:23:46.717Z,0
2022-11-23T05:24:46.207Z,0
2022-11-23T05:25:46.500Z,0
2022-11-23T05:26:46.509Z,0
2022-11-23T05:27:46.285Z,0
2022-11-23T05:28:48.401Z,0
2022-11-23T05:29:46.835Z,0
2022-11-23T05:30:46.640Z,0
2022-11-23T05:31:46.867Z,0
2022-11-23T05:32:46.604Z,0
2022-11-23T05:33:46.405Z,0
2022-11-23T05:34:46.395Z,0
2022-11-23T05:35:46.136Z,0
2022-11-23T05:36:49.667Z,0
2022-11-23T05:37:46.681Z,0
2022-11-23T05:38:46.436Z,0
2022-11-23T05:39:46.722Z,0
2022-11-23T05:40:46.743Z,0
2022-11-23T05:41:47.010Z,0
2022-11-23T05:42:47.027Z,0
2022-11-23T05:43:46.783Z,0
2022-11-23T05:44:46.543Z,0
2022-11-23T05:45:47.074Z,0
2022-11-23T05:46:47.137Z,0
2022-11-23T05:47:46.872Z,0
2022-11-23T05:48:46.868Z,0
2022-11-23T05:49:46.897Z,0
2022-11-23T05:50:46.894Z,0
2022-11-23T05:51:46.666Z,0
2022-11-23T05:52:47.234Z,0
2022-11-23T05:53:46.962Z,0
2022-11-23T05:54:46.961Z,0
2022-11-23T05:55:46.986Z,0
2022-11-23T05:56:47.605Z,0
2022-11-23T05:57:47.007Z,0
2022-11-23T05:58:47.024Z,0
2022-11-23T05:59:47.305Z,0
2022-11-23T06:00:47.313Z,0
2022-11-23T06:01:47.079Z,0
2022-11-23T06:02:48.780Z,0
2022-11-23T06:03:47.459Z,0
2022-11-23T06:04:47.374Z,0
2022-11-23T06:05:47.420Z,0
2022-11-23T06:06:47.168Z,0
2022-11-23T06:07:47.430Z,0
2022-11-23T06:08:52.504Z,0
2022-11-23T06:09:46.940Z,0
2022-11-23T06:10:47.216Z,0
2022-11-23T06:11:47.502Z,0
2022-11-23T06:12:47.263Z,0
2022-11-23T06:13:47.265Z,0
2022-11-23T06:14:47.279Z,0
2022-11-23T06:15:47.622Z,0
2022-11-23T06:16:47.584Z,0
2022-11-23T06:17:47.584Z,0
2022-11-23T06:18:47.409Z,0
2022-11-23T06:19:47.636Z,0
2022-11-23T06:20:47.373Z,0
2022-11-23T06:21:53.527Z,0
2022-11-23T06:22:47.690Z,0
2022-11-23T06:23:47.688Z,0
2022-11-23T06:24:47.717Z,0
2022-11-23T06:25:47.738Z,0
2022-11-23T06:26:47.748Z,0
2022-11-23T06:27:47.487Z,0
2022-11-23T06:28:47.774Z,0
2022-11-23T06:29:47.540Z,0
2022-11-23T06:30:47.280Z,0
2022-11-23T06:31:47.305Z,0
2022-11-23T06:32:47.575Z,0
2022-11-23T06:33:47.606Z,4
2022-11-23T06:34:47.656Z,4
2022-11-23T06:35:47.911Z,0
2022-11-23T06:36:47.390Z,0
2022-11-23T06:37:47.414Z,4
2022-11-23T06:38:47.931Z,4
2022-11-23T06:39:47.695Z,4
2022-11-23T06:40:47.975Z,4
2022-11-23T06:41:47.720Z,8
2022-11-23T06:42:48.042Z,4
2022-11-23T06:43:47.768Z,4
2022-11-23T06:44:47.504Z,8
2022-11-23T06:45:47.573Z,8
2022-11-23T06:46:47.303Z,8
2022-11-23T06:47:47.575Z,12
2022-11-23T06:48:47.611Z,12
2022-11-23T06:49:48.115Z,12
2022-11-23T06:50:48.328Z,20
2022-11-23T06:51:47.647Z,20
2022-11-23T06:52:47.945Z,20
2022-11-23T06:53:48.190Z,20
2022-11-23T06:54:48.026Z,24
2022-11-23T06:55:48.205Z,28
2022-11-23T06:56:47.956Z,28
2022-11-23T06:57:47.981Z,36
2022-11-23T06:58:47.999Z,40
2022-11-23T06:59:51.782Z,40
2022-11-23T07:00:48.283Z,44
2022-11-23T07:01:48.556Z,48
2022-11-23T07:02:47.801Z,56
2022-11-23T07:03:48.400Z,56
2022-11-23T07:04:47.948Z,64
2022-11-23T07:05:48.120Z,64
2022-11-23T07:06:48.180Z,72
2022-11-23T07:07:48.748Z,76
2022-11-23T07:08:48.411Z,80
2022-11-23T07:09:48.461Z,88
2022-11-23T07:10:48.201Z,96
2022-11-23T07:11:48.225Z,104
2022-11-23T07:12:48.215Z,104
2022-11-23T07:13:48.234Z,108
2022-11-23T07:14:48.513Z,116
2022-11-23T07:15:48.270Z,124
2022-11-23T07:16:48.545Z,128
2022-11-23T07:17:48.569Z,132
2022-11-23T07:18:48.581Z,136
2022-11-23T07:19:48.600Z,144
2022-11-23T07:20:48.365Z,148
2022-11-23T07:21:48.114Z,152
2022-11-23T07:22:48.690Z,160
2022-11-23T07:23:48.680Z,168
2022-11-23T07:24:53.277Z,180
2022-11-23T07:25:48.715Z,188
2022-11-23T07:26:48.732Z,192
2022-11-23T07:27:48.221Z,200
2022-11-23T07:28:48.738Z,204
2022-11-23T07:29:48.765Z,200
2022-11-23T07:30:48.259Z,208
2022-11-23T07:31:48.279Z,212
2022-11-23T07:32:48.810Z,216
2022-11-23T07:33:48.566Z,228
2022-11-23T07:34:48.851Z,244
2022-11-23T07:35:48.853Z,248
2022-11-23T07:36:48.353Z,260
2022-11-23T07:37:48.909Z,268
2022-11-23T07:38:48.961Z,288
2022-11-23T07:40:06.199Z,288
2022-11-23T07:40:48.683Z,308
2022-11-23T07:41:51.377Z,320
2022-11-23T07:42:51.896Z,344
2022-11-23T07:43:48.989Z,364
2022-11-23T07:44:48.737Z,400
2022-11-23T07:45:48.755Z,412
2022-11-23T07:46:48.762Z,384
2022-11-23T07:47:48.788Z,384
2022-11-23T07:48:48.812Z,396
2022-11-23T07:49:48.576Z,400
2022-11-23T07:50:48.847Z,440
2022-11-23T07:51:49.133Z,448
2022-11-23T07:52:49.335Z,440
2022-11-23T07:53:49.145Z,412
2022-11-23T07:54:49.228Z,472
2022-11-23T07:55:49.218Z,472
2022-11-23T07:56:49.195Z,476
2022-11-23T07:57:49.246Z,488
2022-11-23T07:58:49.228Z,500
2022-11-23T07:59:48.730Z,500
2022-11-23T08:00:48.747Z,500
2022-11-23T08:01:59.494Z,484
2022-11-23T08:03:40.967Z,480
2022-11-23T08:03:51.305Z,488
2022-11-23T08:04:51.022Z,500
2022-11-23T08:05:50.400Z,520
2022-11-23T08:06:51.285Z,512
2022-11-23T08:07:51.619Z,456
2022-11-23T08:08:50.453Z,584
2022-11-23T08:09:51.266Z,532
2022-11-23T08:10:59.330Z,548
2022-11-23T08:11:51.277Z,532
2022-11-23T08:12:51.324Z,628
2022-11-23T08:13:51.054Z,680
2022-11-23T08:14:51.071Z,688
2022-11-23T08:16:00.570Z,716
2022-11-23T08:16:51.124Z,692
2022-11-23T08:17:51.137Z,736
2022-11-23T08:18:50.878Z,724
2022-11-23T08:19:51.174Z,716
2022-11-23T08:20:50.922Z,664
2022-11-23T08:21:51.196Z,624
2022-11-23T08:22:51.205Z,592
2022-11-23T08:23:51.218Z,584
2022-11-23T08:24:51.246Z,548
2022-11-23T08:25:51.553Z,508
2022-11-23T08:26:51.082Z,476
2022-11-23T08:27:51.565Z,532
2022-11-23T08:28:51.344Z,588
2022-11-23T08:29:51.578Z,644
2022-11-23T08:30:51.339Z,576
2022-11-23T08:31:51.102Z,588
2022-11-23T08:32:51.113Z,608
2022-11-23T08:33:51.389Z,616
2022-11-23T08:34:51.664Z,600
2022-11-23T08:35:51.413Z,600
2022-11-23T08:36:51.703Z,608
2022-11-23T08:37:51.456Z,620
2022-11-23T08:38:51.739Z,644
2022-11-23T08:39:51.477Z,640
2022-11-23T08:40:51.311Z,612
2022-11-23T08:41:51.539Z,612
2022-11-23T08:42:51.943Z,604
2022-11-23T08:43:51.282Z,620
2022-11-23T08:44:51.860Z,644
2022-11-23T08:45:51.587Z,668
2022-11-23T08:46:51.855Z,704
2022-11-23T08:47:51.862Z,700
2022-11-23T08:48:51.908Z,664
2022-11-23T08:49:51.659Z,632
2022-11-23T08:50:51.969Z,616
2022-11-23T08:51:57.047Z,616
2022-11-23T08:52:51.745Z,636
2022-11-23T08:53:51.992Z,668
2022-11-23T08:54:51.992Z,696
2022-11-23T08:55:51.753Z,740
2022-11-23T08:56:51.768Z,752
2022-11-23T08:57:52.106Z,764
2022-11-23T08:58:52.249Z,808
2022-11-23T08:59:51.795Z,824
2022-11-23T09:00:52.108Z,784
2022-11-23T09:01:52.440Z,772
2022-11-23T09:02:51.598Z,792
2022-11-23T09:03:51.609Z,860
2022-11-23T09:04:51.635Z,888
2022-11-23T09:05:52.198Z,876
2022-11-23T09:06:52.183Z,856
2022-11-23T09:07:52.645Z,848
2022-11-23T09:08:51.967Z,888
2022-11-23T09:09:52.241Z,936
2022-11-23T09:10:51.726Z,964
2022-11-23T09:11:52.016Z,944
2022-11-23T09:12:52.453Z,960
2022-11-23T09:13:52.338Z,988
2022-11-23T09:14:52.108Z,996
2022-11-23T09:15:52.212Z,1004
2022-11-23T09:16:51.854Z,1008
2022-11-23T09:17:52.208Z,984
2022-11-23T09:18:52.479Z,1020
2022-11-23T09:19:52.520Z,1076
2022-11-23T09:20:52.464Z,1076
2022-11-23T09:21:52.168Z,1072
2022-11-23T09:22:52.595Z,1080
2022-11-23T09:23:52.198Z,1100
2022-11-23T09:24:52.239Z,1088
2022-11-23T09:25:52.491Z,1068
2022-11-23T09:26:52.262Z,1044
2022-11-23T09:27:52.276Z,1004
2022-11-23T09:28:52.552Z,1008
2022-11-23T09:29:52.344Z,1012
2022-11-23T09:30:52.393Z,1008
2022-11-23T09:31:52.337Z,1020
2022-11-23T09:32:52.389Z,1040
2022-11-23T09:33:52.375Z,1024
2022-11-23T09:34:52.633Z,1000
2022-11-23T09:35:52.290Z,1000
2022-11-23T09:36:52.682Z,1032
2022-11-23T09:37:52.705Z,1028
2022-11-23T09:39:03.727Z,1064
2022-11-23T09:39:52.466Z,1116
2022-11-23T09:40:58.596Z,1156
2022-11-23T09:41:52.236Z,1172
2022-11-23T09:42:52.520Z,1168
2022-11-23T09:43:52.819Z,1112
2022-11-23T09:44:52.801Z,1044
2022-11-23T09:45:52.626Z,1004
2022-11-23T09:46:52.900Z,1000
2022-11-23T09:47:52.094Z,1008
2022-11-23T09:48:52.395Z,1016
2022-11-23T09:49:52.375Z,1020
2022-11-23T09:50:52.564Z,1032
2022-11-23T09:51:52.960Z,1036
2022-11-23T09:52:52.890Z,1044
2022-11-23T09:53:52.966Z,1064
2022-11-23T09:54:52.463Z,1096
2022-11-23T09:55:52.476Z,1088
2022-11-23T09:56:55.917Z,1100
2022-11-23T09:57:52.505Z,1128
2022-11-23T09:58:53.054Z,1200
2022-11-23T09:59:52.825Z,1208
2022-11-23T10:00:53.082Z,1160
2022-11-23T10:01:53.444Z,1116
2022-11-23T10:02:52.900Z,1116
2022-11-23T10:03:56.264Z,1132
2022-11-23T10:04:52.900Z,1072
2022-11-23T10:05:53.162Z,1000
2022-11-23T10:06:52.395Z,920
2022-11-23T10:07:53.433Z,872
2022-11-23T10:08:52.953Z,860
2022-11-23T10:09:53.229Z,844
2022-11-23T10:10:52.713Z,808
2022-11-23T10:11:53.256Z,768
2022-11-23T10:12:52.764Z,736
2022-11-23T10:13:53.305Z,712
2022-11-23T10:14:53.048Z,680
2022-11-23T10:15:53.321Z,676
2022-11-23T10:16:52.822Z,624
2022-11-23T10:17:53.137Z,548
2022-11-23T10:18:53.439Z,524
2022-11-23T10:19:53.121Z,512
2022-11-23T10:20:53.177Z,516
2022-11-23T10:21:53.432Z,544
2022-11-23T10:22:53.428Z,600
2022-11-23T10:23:52.948Z,660
2022-11-23T10:24:53.217Z,680
2022-11-23T10:25:53.237Z,676
2022-11-23T10:26:53.494Z,660
2022-11-23T10:27:53.283Z,648
2022-11-23T10:28:53.539Z,616
2022-11-23T10:29:53.558Z,584
2022-11-23T10:30:53.769Z,580
2022-11-23T10:31:59.669Z,616
2022-11-23T10:32:53.621Z,544
2022-11-23T10:33:53.405Z,532
2022-11-23T10:34:53.700Z,520
2022-11-23T10:35:53.390Z,520
2022-11-23T10:36:53.719Z,512
2022-11-23T10:37:57.856Z,520
2022-11-23T10:38:52.923Z,536
2022-11-23T10:39:53.194Z,556
2022-11-23T10:40:53.493Z,564
2022-11-23T10:41:53.508Z,588
2022-11-23T10:42:53.812Z,580
2022-11-23T10:43:53.541Z,608
2022-11-23T10:44:53.825Z,620
2022-11-23T10:45:59.783Z,620
2022-11-23T10:46:53.581Z,628
2022-11-23T10:47:53.886Z,588
2022-11-23T10:48:53.869Z,644
2022-11-23T10:49:53.660Z,668
2022-11-23T10:50:53.980Z,748
2022-11-23T10:51:53.145Z,680
2022-11-23T10:52:54.075Z,644
2022-11-23T10:53:53.704Z,556
2022-11-23T10:54:53.457Z,572
2022-11-23T10:55:53.483Z,536
2022-11-23T10:56:54.011Z,560
2022-11-23T10:57:54.027Z,596
2022-11-23T10:58:54.049Z,596
2022-11-23T10:59:54.068Z,584
2022-11-23T11:00:54.078Z,588
2022-11-23T11:01:54.108Z,584
2022-11-23T11:02:54.096Z,556
2022-11-23T11:03:53.866Z,584
2022-11-23T11:05:01.076Z,524
2022-11-23T11:06:16.367Z,540
2022-11-23T11:06:54.182Z,600
2022-11-23T11:07:54.265Z,604
2022-11-23T11:08:54.019Z,600
2022-11-23T11:09:53.975Z,604
2022-11-23T11:10:54.001Z,600
2022-11-23T11:11:54.264Z,596
2022-11-23T11:12:54.009Z,596
2022-11-23T11:13:54.039Z,600
2022-11-23T11:14:54.616Z,604
2022-11-23T11:15:54.643Z,604
2022-11-23T11:16:54.902Z,608
2022-11-23T11:17:54.098Z,608
2022-11-23T11:18:54.387Z,612
2022-11-23T11:19:53.880Z,616
2022-11-23T11:20:54.465Z,612
2022-11-23T11:21:54.477Z,612
2022-11-23T11:22:55.026Z,616
2022-11-23T11:23:54.200Z,620
2022-11-23T11:24:54.253Z,624
2022-11-23T11:25:54.242Z,624
2022-11-23T11:26:54.253Z,624
2022-11-23T11:27:54.266Z,624
2022-11-23T11:28:54.549Z,628
2022-11-23T11:29:54.034Z,632
2022-11-23T11:30:54.585Z,636
2022-11-23T11:31:54.323Z,640
2022-11-23T11:32:54.344Z,640
2022-11-23T11:33:54.367Z,636
2022-11-23T11:34:54.649Z,644
2022-11-23T11:35:54.661Z,644
2022-11-23T11:36:54.184Z,648
2022-11-23T11:37:54.744Z,648
2022-11-23T11:39:23.830Z,652
2022-11-23T11:39:54.463Z,656
2022-11-23T11:40:54.781Z,660
2022-11-23T11:41:54.495Z,660
2022-11-23T11:42:54.513Z,664
2022-11-23T11:43:54.273Z,664
2022-11-23T11:44:54.559Z,668
2022-11-23T11:46:36.311Z,672
2022-11-23T11:46:54.575Z,676
2022-11-23T11:47:54.616Z,676
2022-11-23T11:48:54.904Z,680
2022-11-23T11:49:54.896Z,680
2022-11-23T11:50:54.896Z,684
2022-11-23T11:51:54.755Z,684
2022-11-23T11:52:54.917Z,684
2022-11-23T11:53:54.827Z,684
2022-11-23T11:54:54.871Z,684
2022-11-23T11:55:54.872Z,688
2022-11-23T11:56:54.974Z,692
2022-11-23T11:57:55.062Z,696
2022-11-23T11:58:54.828Z,700
2022-11-23T11:59:55.381Z,704
2022-11-23T12:00:54.549Z,708
2022-11-23T12:01:54.833Z,708
2022-11-23T12:02:54.929Z,716
2022-11-23T12:03:55.138Z,716
2022-11-23T12:04:54.637Z,712
2022-11-23T12:05:54.665Z,704
2022-11-23T12:06:55.188Z,708
2022-11-23T12:07:55.122Z,732
2022-11-23T12:08:54.978Z,748
2022-11-23T12:09:55.013Z,732
2022-11-23T12:10:55.096Z,720
2022-11-23T12:11:55.016Z,724
2022-11-23T12:12:55.477Z,744
2022-11-23T12:13:54.522Z,752
2022-11-23T12:14:54.789Z,772
2022-11-23T12:15:57.112Z,948
2022-11-23T12:17:46.761Z,748
2022-11-23T12:17:56.340Z,728
2022-11-23T12:18:56.351Z,676
2022-11-23T12:19:56.648Z,716
2022-11-23T12:20:56.395Z,812
2022-11-23T12:22:01.748Z,884
2022-11-23T12:22:56.431Z,780
2022-11-23T12:23:56.701Z,716
2022-11-23T12:24:56.565Z,676
2022-11-23T12:25:56.792Z,624
2022-11-23T12:26:56.496Z,648
2022-11-23T12:27:56.648Z,664
2022-11-23T12:28:56.795Z,692
2022-11-23T12:29:56.291Z,696
2022-11-23T12:30:56.562Z,764
2022-11-23T12:31:56.585Z,744
2022-11-23T12:32:56.857Z,720
2022-11-23T12:33:57.167Z,684
2022-11-23T12:34:57.044Z,656
2022-11-23T12:35:56.907Z,620
2022-11-23T12:36:56.406Z,568
2022-11-23T12:37:56.689Z,556
2022-11-23T12:38:56.718Z,656
2022-11-23T12:39:56.986Z,676
2022-11-23T12:40:57.003Z,740
2022-11-23T12:41:57.064Z,736
2022-11-23T12:42:57.021Z,728
2022-11-23T12:43:56.798Z,732
2022-11-23T12:44:56.784Z,760
2022-11-23T12:45:56.570Z,788
2022-11-23T12:46:57.235Z,712
2022-11-23T12:47:56.836Z,800
2022-11-23T12:48:56.597Z,808
2022-11-23T12:49:57.137Z,816
2022-11-23T12:50:57.144Z,824
2022-11-23T12:51:57.160Z,828
2022-11-23T12:52:57.182Z,828
2022-11-23T12:53:57.276Z,824
2022-11-23T12:54:56.695Z,792
2022-11-23T12:55:57.228Z,788
2022-11-23T12:56:57.028Z,760
2022-11-23T12:57:57.528Z,780
2022-11-23T12:58:57.304Z,776
2022-11-23T12:59:57.326Z,676
2022-11-23T13:00:57.498Z,716
2022-11-23T13:01:57.316Z,660
2022-11-23T13:02:57.116Z,508
2022-11-23T13:03:57.386Z,504
2022-11-23T13:04:57.119Z,524
2022-11-23T13:05:57.133Z,584
2022-11-23T13:07:49.220Z,584
2022-11-23T13:07:59.881Z,588
2022-11-23T13:08:59.640Z,520
2022-11-23T13:09:59.656Z,516
2022-11-23T13:10:59.421Z,536
2022-11-23T13:11:59.702Z,608
2022-11-23T13:12:59.874Z,608
2022-11-23T13:13:59.474Z,604
2022-11-23T13:14:59.771Z,636
2022-11-23T13:16:00.376Z,652
2022-11-23T13:17:00.008Z,624
2022-11-23T13:17:59.265Z,628
2022-11-23T13:19:06.875Z,620
2022-11-23T13:19:59.314Z,580
2022-11-23T13:20:59.860Z,532
2022-11-23T13:21:59.602Z,512
2022-11-23T13:22:59.874Z,500
2022-11-23T13:23:59.637Z,492
2022-11-23T13:24:59.398Z,488
2022-11-23T13:25:59.916Z,484
2022-11-23T13:26:59.437Z,484
2022-11-23T13:27:59.956Z,488
2022-11-23T13:29:00.093Z,480
2022-11-23T13:29:59.478Z,452
2022-11-23T13:31:21.964Z,472
2022-11-23T13:32:00.191Z,476
2022-11-23T13:32:59.782Z,472
2022-11-23T13:33:59.818Z,500
2022-11-23T13:34:59.557Z,508
2022-11-23T13:36:05.533Z,476
2022-11-23T13:37:29.854Z,448
2022-11-23T13:37:59.867Z,448
2022-11-23T13:39:00.144Z,452
2022-11-23T13:39:59.647Z,452
2022-11-23T13:40:59.921Z,448
2022-11-23T13:42:00.195Z,448
2022-11-23T13:42:59.698Z,440
2022-11-23T13:44:00.215Z,436
2022-11-23T13:45:00.404Z,432
2022-11-23T13:46:00.461Z,432
2022-11-23T13:47:00.052Z,432
2022-11-23T13:48:00.315Z,428
2022-11-23T13:49:04.551Z,428
2022-11-23T13:50:00.335Z,424
2022-11-23T13:51:00.110Z,424
2022-11-23T13:51:59.837Z,416
2022-11-23T13:53:00.111Z,420
2022-11-23T13:54:00.139Z,424
2022-11-23T13:55:03.913Z,420
2022-11-23T13:55:59.906Z,416
2022-11-23T13:57:00.447Z,416
2022-11-23T13:58:00.460Z,416
2022-11-23T13:59:00.203Z,408
2022-11-23T14:00:00.332Z,408
2022-11-23T14:01:01.134Z,404
2022-11-23T14:02:00.373Z,408
2022-11-23T14:03:03.808Z,404
2022-11-23T14:04:00.307Z,396
2022-11-23T14:05:00.568Z,396
2022-11-23T14:06:00.602Z,392
2022-11-23T14:07:00.604Z,388
2022-11-23T14:08:00.587Z,384
2022-11-23T14:09:00.632Z,384
2022-11-23T14:10:02.950Z,380
2022-11-23T14:11:00.676Z,376
2022-11-23T14:12:00.432Z,376
2022-11-23T14:13:00.695Z,372
2022-11-23T14:14:00.723Z,368